Terminal Aerodrome Forecast
Issued by NWS Shreveport, LA

Home | Current Version | Previous Version | Text Only | Print | Product List | Glossary On
Versions: 1 2 3 4 5 6 7 8 9 10 11 12 13 14 15 16 17 18 19 20 21 22
000
FTUS44 KSHV 221100 RRA
TAFTXK
TAF
KTXK 221141Z 2212/2312 08003KT 3SM BR SKC
     FM221300 10003KT P6SM SKC
     FM221600 11005KT P6SM SCT035
     FM222000 11005KT P6SM SCT045
     FM230000 10004KT P6SM SKC=

USA.gov is the U.S. government's official web portal to all federal, state and local government web resources and services.